createdAt,value
2019-01-15T00:03:05.824Z,8.50
2019-01-15T00:08:37.509Z,12.63
2019-01-15T00:11:06.846Z,8.33
2019-01-15T00:13:36.482Z,6.37
2019-01-15T00:19:07.499Z,14.73
2019-01-15T00:21:38.795Z,4.73
2019-01-15T00:24:08.142Z,10.37
2019-01-15T00:26:37.635Z,9.50
2019-01-15T00:29:06.968Z,15.03
2019-01-15T00:31:36.632Z,10.03
2019-01-15T00:37:06.504Z,8.90
2019-01-15T00:39:35.837Z,7.67
2019-01-15T00:42:05.175Z,6.90
2019-01-15T00:44:34.654Z,12.90
2019-01-15T00:47:23.596Z,7.47
2019-01-15T00:49:52.924Z,10.23
2019-01-15T00:52:22.777Z,2.52
2019-01-15T00:54:52.116Z,2.53
2019-01-15T00:57:21.632Z,4.90
2019-01-15T00:59:50.958Z,3.40
2019-01-15T01:02:20.511Z,9.30
2019-01-15T01:05:49.006Z,8.30
2019-01-15T01:08:18.641Z,5.17
2019-01-15T01:10:48.105Z,4.60
2019-01-15T01:13:17.836Z,9.50
2019-01-15T01:15:47.166Z,5.60
2019-01-15T01:18:17.132Z,2.25
2019-01-15T01:20:46.617Z,5.43
2019-01-15T01:23:15.963Z,14.37
2019-01-15T01:25:45.561Z,3.20
2019-01-15T01:28:15.206Z,9.73
2019-01-15T01:30:45.278Z,3.00
2019-01-15T01:33:14.902Z,8.07
2019-01-15T01:35:44.229Z,6.90
2019-01-15T01:38:14.209Z,8.37
2019-01-15T01:41:02.962Z,9.43
2019-01-15T01:43:32.879Z,5.33
2019-01-15T01:46:02.474Z,6.90
2019-01-15T01:48:31.829Z,6.20
2019-01-15T01:51:01.154Z,7.17
2019-01-15T01:53:30.701Z,11.30
2019-01-15T01:56:00.093Z,8.93
2019-01-15T01:58:29.973Z,3.92
2019-01-15T02:01:13.002Z,10.83
2019-01-15T02:03:43.304Z,11.63
2019-01-15T02:06:12.928Z,2.73
2019-01-15T02:08:42.883Z,2.00
2019-01-15T02:11:12.508Z,8.85
2019-01-15T02:13:41.855Z,6.27
2019-01-15T02:16:12.058Z,12.25
2019-01-15T02:18:41.935Z,6.83
2019-01-15T02:21:12.997Z,5.60
2019-01-15T02:23:42.882Z,4.22
2019-01-15T02:26:12.214Z,7.97
2019-01-15T02:28:41.823Z,10.10
2019-01-15T02:31:12.039Z,3.62
2019-01-15T02:33:41.674Z,5.53
2019-01-15T02:36:12.146Z,8.78
2019-01-15T02:38:41.824Z,7.97
2019-01-15T02:41:30.256Z,1.67
2019-01-15T02:44:00.077Z,3.57
2019-01-15T02:46:48.736Z,5.33
2019-01-15T02:49:18.141Z,6.65
2019-01-15T02:51:47.750Z,5.40
2019-01-15T02:54:17.118Z,4.37
2019-01-15T02:56:46.739Z,5.25
2019-01-15T02:59:17.995Z,8.05
2019-01-15T03:01:47.622Z,7.72
2019-01-15T03:04:17.251Z,6.93
2019-01-15T03:06:46.879Z,4.42
2019-01-15T03:09:16.223Z,4.60
2019-01-15T03:11:45.869Z,7.40
2019-01-15T03:17:49.425Z,8.30
2019-01-15T03:20:59.109Z,4.58
2019-01-15T03:23:28.444Z,5.87
2019-01-15T03:28:46.424Z,2.30
2019-01-15T03:31:16.206Z,7.62
2019-01-15T03:33:46.178Z,4.53
2019-01-15T03:36:35.139Z,5.55
2019-01-15T03:39:44.821Z,3.10
2019-01-15T03:42:14.143Z,4.50
2019-01-15T03:44:43.783Z,3.55
2019-01-15T03:47:13.470Z,5.67
2019-01-15T03:49:43.101Z,4.67
2019-01-15T03:52:12.504Z,4.97
2019-01-15T03:54:41.970Z,2.33
2019-01-15T03:57:12.265Z,4.22
2019-01-15T03:59:41.896Z,4.90
2019-01-15T04:16:26.619Z,5.13
2019-01-15T04:18:56.007Z,10.33
2019-01-15T04:21:25.349Z,3.22
2019-01-15T04:23:55.046Z,10.60
2019-01-15T04:26:24.685Z,5.80
2019-01-15T04:28:54.188Z,6.23
2019-01-15T04:31:23.759Z,10.87
2019-01-15T04:34:12.230Z,5.53
2019-01-15T04:36:41.813Z,10.40
2019-01-15T04:39:12.389Z,7.70
2019-01-15T04:41:41.988Z,3.33
2019-01-15T04:44:12.418Z,6.10
2019-01-15T04:46:42.038Z,8.35
2019-01-15T04:49:12.402Z,5.37
2019-01-15T04:51:42.149Z,10.13
2019-01-15T04:54:12.439Z,6.40
2019-01-15T05:02:19.300Z,5.92
2019-01-15T05:04:48.636Z,10.50
2019-01-15T05:07:18.488Z,4.90
2019-01-15T05:09:48.078Z,4.30
2019-01-15T05:15:32.974Z,10.50
2019-01-15T05:18:02.303Z,3.07
2019-01-15T05:20:31.761Z,6.53
2019-01-15T05:23:01.510Z,1.30
2019-01-15T05:25:31.163Z,6.40
2019-01-15T05:28:00.488Z,1.60
2019-01-15T05:30:30.135Z,3.22
2019-01-15T05:32:59.573Z,5.23
2019-01-15T05:35:28.930Z,5.37
2019-01-15T05:37:59.874Z,5.07
2019-01-15T05:40:29.687Z,4.67
2019-01-15T05:42:59.620Z,10.18
2019-01-15T05:45:48.925Z,4.40
2019-01-15T05:48:31.405Z,5.50
2019-01-15T05:53:40.771Z,7.83
2019-01-15T05:56:10.388Z,2.95
2019-01-15T05:58:40.061Z,3.93
2019-01-15T06:01:09.568Z,3.00
2019-01-15T06:03:38.894Z,6.20
2019-01-15T06:06:08.526Z,2.98
2019-01-15T06:08:37.921Z,7.70
2019-01-15T06:11:08.878Z,5.67
2019-01-15T06:13:42.590Z,3.47
2019-01-15T06:16:28.866Z,7.33
2019-01-15T06:18:58.187Z,6.87
2019-01-15T06:21:27.871Z,9.60
2019-01-15T06:23:57.486Z,16.20
2019-01-15T06:26:26.828Z,8.33
2019-01-15T06:28:56.446Z,6.65
2019-01-15T06:31:26.081Z,4.37
2019-01-15T06:33:55.931Z,3.83
2019-01-15T06:36:25.581Z,10.68
2019-01-15T06:38:54.910Z,5.30
2019-01-15T06:41:24.612Z,7.12
2019-01-15T06:43:53.935Z,4.17
2019-01-15T06:46:23.570Z,8.13
2019-01-15T06:48:53.224Z,3.20
2019-01-15T06:51:22.678Z,6.00
2019-01-15T06:53:52.020Z,8.70
2019-01-15T06:56:21.953Z,6.25
2019-01-15T06:58:51.582Z,9.65
2019-01-15T07:01:33.621Z,9.15
2019-01-15T07:04:03.030Z,12.80
2019-01-15T07:06:32.700Z,13.53
2019-01-15T07:09:02.039Z,18.53
2019-01-15T07:11:33.002Z,10.33
2019-01-15T07:14:02.636Z,10.23
2019-01-15T07:19:27.903Z,13.00
2019-01-15T07:21:57.702Z,13.00
2019-01-15T07:24:27.053Z,8.80
2019-01-15T07:26:56.661Z,11.63
2019-01-15T07:29:26.541Z,11.33
2019-01-15T07:31:55.862Z,12.03
2019-01-15T07:34:25.213Z,14.47
2019-01-15T07:36:54.786Z,10.97
2019-01-15T07:39:24.520Z,15.90
2019-01-15T07:41:54.119Z,15.30
2019-01-15T07:44:23.780Z,17.80
2019-01-15T07:46:53.112Z,22.77
2019-01-15T07:49:22.765Z,19.70
2019-01-15T07:51:52.106Z,11.73
2019-01-15T07:54:40.832Z,17.97
2019-01-15T07:57:10.161Z,14.80
2019-01-15T07:59:41.125Z,22.93
2019-01-15T08:05:47.115Z,20.77
2019-01-15T08:08:17.102Z,13.08
2019-01-15T08:10:46.739Z,18.65
2019-01-15T08:13:16.190Z,22.13
2019-01-15T08:16:05.197Z,24.93
2019-01-15T08:18:34.898Z,21.77
2019-01-15T08:21:04.239Z,18.13
2019-01-15T08:23:33.833Z,18.60
2019-01-15T08:26:03.235Z,10.07
2019-01-15T08:28:32.913Z,17.10
2019-01-15T08:31:02.275Z,17.10
2019-01-15T08:33:31.885Z,21.77
2019-01-15T08:36:01.237Z,19.80
2019-01-15T08:38:30.872Z,18.23
2019-01-15T08:41:00.225Z,23.80
2019-01-15T08:43:31.179Z,16.30
2019-01-15T08:48:57.788Z,17.05
2019-01-15T08:51:27.339Z,14.98
2019-01-15T08:53:57.088Z,20.83
2019-01-15T08:56:26.501Z,26.40
2019-01-15T08:58:55.939Z,23.37
2019-01-15T09:04:06.132Z,24.20
2019-01-15T09:06:35.738Z,25.77
2019-01-15T09:09:45.122Z,18.07
2019-01-15T09:12:15.123Z,28.40
2019-01-15T09:14:44.475Z,26.20
2019-01-15T09:17:14.108Z,19.27
2019-01-15T09:19:43.768Z,18.82
2019-01-15T09:22:13.446Z,22.73
2019-01-15T09:24:51.311Z,20.70
2019-01-15T09:27:21.199Z,28.32
2019-01-15T09:29:50.829Z,20.80
2019-01-15T09:32:20.275Z,24.80
2019-01-15T09:34:49.932Z,22.93
2019-01-15T09:40:30.414Z,15.60
2019-01-15T09:43:00.050Z,27.37
2019-01-15T09:45:29.404Z,18.57
2019-01-15T09:50:56.225Z,16.70
2019-01-15T09:53:25.872Z,17.82
2019-01-15T09:55:55.227Z,31.00
2019-01-15T09:58:24.566Z,20.60
2019-01-15T10:00:54.030Z,19.23
2019-01-15T10:03:23.370Z,20.45
2019-01-15T10:05:52.717Z,27.73
2019-01-15T10:08:22.118Z,23.33
2019-01-15T10:10:51.465Z,26.83
2019-01-15T10:13:21.011Z,26.90
2019-01-15T10:15:50.372Z,27.30
2019-01-15T10:18:19.706Z,21.50
2019-01-15T10:20:49.257Z,36.50
2019-01-15T10:23:18.594Z,21.73
2019-01-15T10:25:48.689Z,30.20
2019-01-15T10:28:18.348Z,27.70
2019-01-15T10:31:09.189Z,29.82
2019-01-15T10:33:58.328Z,22.50
2019-01-15T10:36:27.244Z,14.10
2019-01-15T10:38:56.576Z,25.47
2019-01-15T10:41:26.240Z,19.45
2019-01-15T10:44:14.681Z,22.13
2019-01-15T10:46:44.100Z,15.27
2019-01-15T10:49:13.556Z,32.67
2019-01-15T10:51:43.150Z,20.80
2019-01-15T10:54:13.446Z,31.55
2019-01-15T10:56:42.807Z,26.27
2019-01-15T10:59:13.498Z,32.20
2019-01-15T11:01:43.146Z,23.10
2019-01-15T11:04:13.727Z,24.82
2019-01-15T11:06:43.151Z,29.93
2019-01-15T11:09:13.477Z,27.30
2019-01-15T11:11:43.117Z,28.77
2019-01-15T11:17:09.318Z,20.60
2019-01-15T11:19:38.655Z,30.27
2019-01-15T11:22:08.209Z,21.20
2019-01-15T11:24:37.543Z,28.63
2019-01-15T11:27:07.178Z,24.27
2019-01-15T11:29:36.508Z,26.40
2019-01-15T11:32:06.169Z,20.82
2019-01-15T11:34:35.506Z,21.70
2019-01-15T11:37:05.159Z,20.70
2019-01-15T11:39:34.888Z,23.23
2019-01-15T11:42:04.433Z,20.07
2019-01-15T11:44:33.774Z,29.33
2019-01-15T11:47:03.807Z,19.23
2019-01-15T11:49:54.102Z,13.37
2019-01-15T11:52:23.922Z,20.60
2019-01-15T11:58:09.778Z,27.27
2019-01-15T12:03:39.828Z,21.70
2019-01-15T12:06:28.456Z,24.97
2019-01-15T12:09:16.927Z,25.73
2019-01-15T12:12:05.438Z,16.63
2019-01-15T12:14:53.909Z,17.27
2019-01-15T12:17:42.766Z,15.13
2019-01-15T12:20:19.928Z,26.97
2019-01-15T12:26:03.588Z,20.70
2019-01-15T12:31:47.485Z,23.17
2019-01-15T12:37:16.770Z,14.27
2019-01-15T12:40:05.255Z,12.70
2019-01-15T12:42:53.776Z,13.20
2019-01-15T12:48:51.562Z,15.10
2019-01-15T12:54:45.775Z,9.37
2019-01-15T12:57:34.590Z,15.90
2019-01-15T13:06:34.593Z,10.57
2019-01-15T13:09:43.979Z,15.47
2019-01-15T13:15:34.473Z,8.27
2019-01-15T13:21:25.555Z,8.60
2019-01-15T13:24:14.100Z,15.57
2019-01-15T13:30:17.353Z,9.70
2019-01-15T13:33:06.053Z,15.20
2019-01-15T13:35:54.520Z,7.53
2019-01-15T13:38:42.988Z,9.77
2019-01-15T13:41:31.443Z,19.20
2019-01-15T13:44:11.633Z,10.47
2019-01-15T13:47:01.308Z,14.77
2019-01-15T13:49:49.789Z,13.23
2019-01-15T13:52:38.250Z,12.43
2019-01-15T13:55:28.095Z,16.60
2019-01-15T14:01:23.897Z,17.97
2019-01-15T14:04:12.358Z,12.60
2019-01-15T14:12:36.663Z,9.83
2019-01-15T14:15:49.097Z,9.57
2019-01-15T14:21:38.308Z,13.10
2019-01-15T14:24:26.775Z,7.03
2019-01-15T14:27:15.254Z,6.47
2019-01-15T14:33:12.871Z,9.30
2019-01-15T14:36:03.693Z,11.07
2019-01-15T14:38:52.142Z,9.57
2019-01-15T14:41:40.612Z,6.63
2019-01-15T14:44:29.051Z,5.73
2019-01-15T14:47:17.515Z,6.57
2019-01-15T14:53:02.298Z,49.73
2019-01-15T14:58:45.983Z,10.40
2019-01-15T15:01:34.456Z,8.63
2019-01-15T15:04:22.916Z,12.30
2019-01-15T15:12:47.194Z,6.83
2019-01-15T15:15:35.643Z,9.10
2019-01-15T15:24:13.028Z,12.30
2019-01-15T15:30:12.341Z,7.57
2019-01-15T15:33:01.120Z,10.33
2019-01-15T15:35:49.635Z,8.10
2019-01-15T15:38:38.112Z,10.70
2019-01-15T15:41:26.809Z,6.87
2019-01-15T15:44:15.264Z,10.27
2019-01-15T15:49:43.976Z,13.00
2019-01-15T15:55:48.701Z,6.00
2019-01-15T15:58:37.167Z,8.17
2019-01-15T16:04:21.530Z,11.10
2019-01-15T16:07:09.999Z,7.00
2019-01-15T16:09:58.453Z,8.43
2019-01-15T16:12:46.912Z,7.63
2019-01-15T16:15:35.367Z,13.47
2019-01-15T16:18:44.780Z,6.93
2019-01-15T16:21:33.234Z,8.10
2019-01-15T16:24:21.705Z,11.03
2019-01-15T16:27:10.468Z,8.27
2019-01-15T16:29:58.885Z,10.40
2019-01-15T16:32:47.605Z,18.00
2019-01-15T16:35:36.060Z,6.03
2019-01-15T16:38:24.652Z,14.90
2019-01-15T16:44:08.957Z,6.80
2019-01-15T16:46:57.491Z,11.00
2019-01-15T16:49:46.082Z,12.03
2019-01-15T16:52:34.568Z,9.87
2019-01-15T17:01:06.944Z,14.37
2019-01-15T17:06:36.202Z,14.93
2019-01-15T17:12:26.079Z,13.00
2019-01-15T17:15:15.207Z,14.83
2019-01-15T17:24:30.015Z,10.40
2019-01-15T17:27:18.491Z,12.13
2019-01-15T17:38:54.481Z,11.80
2019-01-15T17:41:43.193Z,17.30
2019-01-15T17:44:31.669Z,13.07
2019-01-15T17:50:15.865Z,16.37
2019-01-15T17:53:04.328Z,15.20
2019-01-15T17:55:52.799Z,16.30
2019-01-15T17:58:41.319Z,16.27
2019-01-15T18:01:30.022Z,12.10
2019-01-15T18:04:18.511Z,14.03
2019-01-15T18:07:06.973Z,15.77
2019-01-15T18:09:55.711Z,17.60
2019-01-15T18:12:44.170Z,17.13
2019-01-15T18:15:32.699Z,15.83
2019-01-15T18:18:21.394Z,15.70
2019-01-15T18:21:29.215Z,14.47
2019-01-15T18:24:17.697Z,21.43
2019-01-15T18:27:06.171Z,12.17
2019-01-15T18:29:54.668Z,13.00
2019-01-15T18:32:45.761Z,20.10
2019-01-15T18:35:34.257Z,22.10
2019-01-15T18:38:22.723Z,13.80
2019-01-15T18:41:11.199Z,14.17
2019-01-15T18:44:01.291Z,14.70
2019-01-15T18:46:55.807Z,30.53
2019-01-15T18:49:59.039Z,18.30
2019-01-15T18:52:47.745Z,22.40
2019-01-15T18:55:36.223Z,22.57
2019-01-15T18:58:24.731Z,16.37
2019-01-15T19:04:16.015Z,23.60
2019-01-15T19:07:04.486Z,16.53
2019-01-15T19:09:52.954Z,18.43
2019-01-15T19:12:41.440Z,22.67
2019-01-15T19:15:41.980Z,16.73
2019-01-15T19:18:30.689Z,21.30
2019-01-15T19:21:19.179Z,21.37
2019-01-15T19:29:57.395Z,15.43
2019-01-15T19:32:45.879Z,26.50
2019-01-15T19:35:34.390Z,23.10
2019-01-15T19:38:24.853Z,24.93
2019-01-15T19:44:10.417Z,30.83
2019-01-15T19:46:59.201Z,27.77
2019-01-15T19:49:47.675Z,24.00
2019-01-15T19:52:36.146Z,22.67
2019-01-15T20:01:52.879Z,26.97
2019-01-15T20:07:50.467Z,26.00
2019-01-15T20:10:38.953Z,22.60
2019-01-15T20:13:27.428Z,16.97
2019-01-15T20:16:16.090Z,15.33
2019-01-15T20:19:04.548Z,24.73
2019-01-15T20:21:55.092Z,22.33
2019-01-15T20:27:44.768Z,15.70
2019-01-15T20:33:42.416Z,18.40
2019-01-15T20:36:31.152Z,22.63
2019-01-15T20:39:19.619Z,15.23
2019-01-15T20:42:08.098Z,14.73
2019-01-15T20:44:56.624Z,24.20
2019-01-15T20:47:45.058Z,23.70
2019-01-15T20:53:42.721Z,18.33
2019-01-15T20:56:31.195Z,20.03
2019-01-15T20:59:19.931Z,17.90
2019-01-15T21:04:48.984Z,18.30
2019-01-15T21:07:37.776Z,23.50
2019-01-15T21:10:47.406Z,24.63
2019-01-15T21:16:14.884Z,19.40
2019-01-15T21:19:03.450Z,18.50
2019-01-15T21:21:51.931Z,24.23
2019-01-15T21:24:40.420Z,19.80
2019-01-15T21:27:29.667Z,24.27
2019-01-15T21:30:18.416Z,19.77
2019-01-15T21:33:06.872Z,17.20
2019-01-15T21:35:55.364Z,19.60
2019-01-15T21:41:24.923Z,30.97
2019-01-15T21:44:13.409Z,27.07
2019-01-15T21:47:02.053Z,21.70
2019-01-15T21:52:47.793Z,24.40
2019-01-15T21:55:41.429Z,21.70
2019-01-15T22:01:08.932Z,33.23
2019-01-15T22:03:57.420Z,23.93
2019-01-15T22:06:45.915Z,17.37
2019-01-15T22:09:34.398Z,32.40
2019-01-15T22:12:41.986Z,30.70
2019-01-15T22:15:30.556Z,30.17
2019-01-15T22:18:19.743Z,27.53
2019-01-15T22:21:08.234Z,29.20
2019-01-15T22:23:56.715Z,26.50
2019-01-15T22:26:45.172Z,19.60
2019-01-15T22:29:33.681Z,13.60
2019-01-15T22:32:22.202Z,19.73
2019-01-15T22:43:27.438Z,34.40
2019-01-15T22:46:15.929Z,14.77
2019-01-15T22:49:04.401Z,20.00
2019-01-15T22:51:52.878Z,33.93
2019-01-15T22:54:41.510Z,32.97
2019-01-15T22:57:29.984Z,28.80
2019-01-15T23:00:18.455Z,30.17
2019-01-15T23:03:08.551Z,33.00
2019-01-15T23:11:32.256Z,25.77
2019-01-15T23:22:56.565Z,33.30
2019-01-15T23:26:04.394Z,31.40
2019-01-15T23:28:52.867Z,28.83
2019-01-15T23:31:42.964Z,19.07
2019-01-15T23:34:31.425Z,33.83
2019-01-15T23:37:19.902Z,33.73
2019-01-15T23:40:08.373Z,26.20
2019-01-15T23:45:37.195Z,30.20
2019-01-15T23:54:30.063Z,25.70
2019-01-15T23:57:18.549Z,29.50
